Time;durP1;ratioP1;P1;durP2;ratioP2;P2;SDS_P1;SDS_P2;PMS_P1;PMS_P2;Temp;Humidity;BMP_temperature;BMP_pressure;BME280_temperature;BME280_humidity;BME280_pressure;Samples;Min_cycle;Max_cycle;Signal;HPM_P1;HPM_P2
2021/06/28 00:00:07;;;;;;;21.50;15.33;;;17.20;99.90;;;;;;5065829;28;20330;-62
2021/06/28 00:02:35;;;;;;;21.87;16.07;;;17.20;99.90;;;;;;5064383;28;20193;-63
2021/06/28 00:05:06;;;;;;;21.43;15.23;;;17.10;99.90;;;;;;5067538;28;20187;-62
2021/06/28 00:07:35;;;;;;;23.47;14.93;;;17.10;99.90;;;;;;5098857;28;20430;-62
2021/06/28 00:10:05;;;;;;;19.17;13.97;;;17.10;99.90;;;;;;5063089;28;20233;-62
2021/06/28 00:12:34;;;;;;;18.03;13.90;;;17.00;99.90;;;;;;5063343;28;20331;-62
2021/06/28 00:15:06;;;;;;;19.53;15.13;;;17.00;99.90;;;;;;5066903;28;20317;-62
2021/06/28 00:17:34;;;;;;;18.23;13.97;;;17.10;99.90;;;;;;5064531;28;20246;-62
2021/06/28 00:20:03;;;;;;;21.97;11.97;;;17.10;99.90;;;;;;5065468;28;20234;-62
2021/06/28 00:22:33;;;;;;;15.47;12.70;;;17.00;99.90;;;;;;5065919;28;20248;-62
2021/06/28 00:25:04;;;;;;;18.40;12.40;;;17.00;99.90;;;;;;5065119;28;20193;-62
2021/06/28 00:27:32;;;;;;;16.63;12.50;;;17.00;99.90;;;;;;5066473;28;20655;-62
2021/06/28 00:30:07;;;;;;;16.67;11.70;;;16.90;99.90;;;;;;5057978;28;20204;-62
2021/06/28 00:32:35;;;;;;;14.17;11.00;;;16.90;99.90;;;;;;5066937;28;20198;-63
2021/06/28 00:35:05;;;;;;;15.13;11.27;;;16.80;99.90;;;;;;5066112;28;20212;-63
2021/06/28 00:37:35;;;;;;;12.27;10.63;;;16.90;99.90;;;;;;5068170;28;20279;-62
2021/06/28 00:40:05;;;;;;;16.93;11.83;;;16.80;99.90;;;;;;5069762;28;20234;-62
2021/06/28 00:42:33;;;;;;;14.57;11.37;;;16.80;99.90;;;;;;5069535;28;20198;-62
2021/06/28 00:45:14;;;;;;;14.73;11.27;;;16.70;99.90;;;;;;5070377;28;20297;-63
2021/06/28 00:47:43;;;;;;;15.57;11.80;;;16.70;99.90;;;;;;5068130;28;20250;-63
2021/06/28 00:50:12;;;;;;;14.43;11.03;;;16.70;99.90;;;;;;5068097;28;20188;-63
2021/06/28 00:52:43;;;;;;;16.10;11.50;;;16.70;99.90;;;;;;5072239;28;20558;-62
2021/06/28 00:55:11;;;;;;;15.77;12.07;;;16.70;99.90;;;;;;5069889;28;20192;-62
2021/06/28 00:57:41;;;;;;;16.50;12.73;;;16.50;99.90;;;;;;5070995;28;20198;-62
2021/06/28 01:00:11;;;;;;;15.90;11.93;;;16.50;99.90;;;;;;5070340;28;20227;-62
2021/06/28 01:02:40;;;;;;;21.13;13.17;;;16.50;99.90;;;;;;5069118;28;20537;-62
2021/06/28 01:05:13;;;;;;;18.33;13.40;;;16.50;99.90;;;;;;5065426;28;20203;-63
2021/06/28 01:07:43;;;;;;;19.33;13.93;;;16.60;99.90;;;;;;5072033;28;20231;-62
2021/06/28 01:10:13;;;;;;;19.60;13.67;;;16.60;99.90;;;;;;5065418;28;20285;-62
2021/06/28 01:12:43;;;;;;;14.50;12.13;;;16.60;99.90;;;;;;5070436;28;20223;-63
2021/06/28 01:15:15;;;;;;;20.70;13.03;;;16.60;99.90;;;;;;5065835;28;20192;-62
2021/06/28 01:17:44;;;;;;;15.40;11.93;;;16.50;99.90;;;;;;5062270;28;20193;-62
2021/06/28 01:20:14;;;;;;;17.73;11.63;;;16.40;99.90;;;;;;5066088;28;20254;-62
2021/06/28 01:22:46;;;;;;;15.17;11.30;;;16.40;99.90;;;;;;5059727;28;20660;-62
2021/06/28 01:25:20;;;;;;;18.63;13.17;;;16.40;99.90;;;;;;5070706;28;20199;-62
2021/06/28 01:27:49;;;;;;;20.07;11.50;;;16.30;99.90;;;;;;5062531;28;20201;-63
2021/06/28 01:30:19;;;;;;;19.00;14.17;;;16.40;99.90;;;;;;5063788;28;21267;-63
2021/06/28 01:32:48;;;;;;;18.67;13.70;;;16.40;99.90;;;;;;5058369;28;20657;-63
2021/06/28 01:35:18;;;;;;;19.67;13.90;;;16.40;99.90;;;;;;5060142;28;20194;-62
2021/06/28 01:37:47;;;;;;;17.23;13.20;;;16.40;99.90;;;;;;5066203;28;20241;-63
2021/06/28 01:40:18;;;;;;;16.33;12.23;;;16.40;99.90;;;;;;5068396;28;20646;-63
2021/06/28 01:42:47;;;;;;;14.70;11.53;;;16.30;99.90;;;;;;5062628;28;20204;-62
2021/06/28 01:45:20;;;;;;;17.57;12.93;;;16.20;99.90;;;;;;5067950;28;20185;-62
2021/06/28 01:47:49;;;;;;;14.37;11.17;;;16.20;99.90;;;;;;5070323;28;20250;-62
2021/06/28 01:50:19;;;;;;;17.93;12.17;;;16.10;99.90;;;;;;5063115;28;20200;-63
2021/06/28 01:52:48;;;;;;;14.27;11.97;;;16.10;99.90;;;;;;5066410;28;20197;-62
2021/06/28 01:55:19;;;;;;;16.60;13.00;;;16.10;99.90;;;;;;5068733;28;20216;-62
2021/06/28 01:57:49;;;;;;;15.63;12.27;;;16.00;99.90;;;;;;5060584;28;20304;-63
2021/06/28 02:00:21;;;;;;;18.93;13.07;;;16.10;99.90;;;;;;5066302;28;20234;-62
2021/06/28 02:03:00;;;;;;;15.83;12.40;;;16.00;99.90;;;;;;5070920;28;20249;-62
2021/06/28 02:05:31;;;;;;;15.60;12.20;;;16.00;99.90;;;;;;5066280;28;20204;-63
2021/06/28 02:08:03;;;;;;;18.93;14.07;;;16.00;99.90;;;;;;5068479;28;20232;-63
2021/06/28 02:10:36;;;;;;;17.93;13.80;;;16.10;99.90;;;;;;5058624;28;20254;-62
2021/06/28 02:13:05;;;;;;;20.43;13.30;;;16.10;99.90;;;;;;5067060;28;20196;-62
2021/06/28 02:15:34;;;;;;;16.17;13.63;;;16.10;99.90;;;;;;5059653;28;20248;-62
2021/06/28 02:18:04;;;;;;;19.03;13.97;;;16.00;99.90;;;;;;5070149;28;20215;-62
2021/06/28 02:20:32;;;;;;;16.07;13.33;;;16.00;99.90;;;;;;5068504;28;20223;-63
2021/06/28 02:23:22;;;;;;;16.13;13.00;;;16.00;99.90;;;;;;5066864;28;20228;-62
2021/06/28 02:25:55;;;;;;;16.23;12.97;;;16.00;99.90;;;;;;5067386;28;20194;-62
2021/06/28 02:28:24;;;;;;;19.33;15.07;;;16.00;99.90;;;;;;5064322;28;20354;-63
2021/06/28 02:30:53;;;;;;;16.77;13.87;;;16.10;99.90;;;;;;5067149;28;20189;-62
2021/06/28 02:33:22;;;;;;;15.27;12.83;;;16.00;99.90;;;;;;5066124;28;20196;-62
2021/06/28 02:35:52;;;;;;;19.63;13.40;;;16.00;99.90;;;;;;5053688;28;20243;-63
2021/06/28 02:38:21;;;;;;;16.40;13.53;;;15.90;99.90;;;;;;5064013;28;20202;-62
2021/06/28 02:40:49;;;;;;;21.63;14.20;;;15.90;99.90;;;;;;5064097;28;20196;-63
2021/06/28 02:43:19;;;;;;;18.77;13.20;;;15.90;99.90;;;;;;5066866;28;20205;-62
2021/06/28 02:45:48;;;;;;;16.23;12.47;;;15.90;99.90;;;;;;5061808;28;20198;-62
2021/06/28 02:48:17;;;;;;;17.77;12.90;;;15.90;99.90;;;;;;5062742;28;20188;-62
2021/06/28 02:50:45;;;;;;;19.77;12.47;;;15.90;99.90;;;;;;5055874;28;20275;-62
2021/06/28 02:53:16;;;;;;;18.60;13.60;;;15.80;99.90;;;;;;5063720;28;20230;-62
2021/06/28 02:55:47;;;;;;;15.40;11.93;;;15.80;99.90;;;;;;5067477;28;20246;-63
2021/06/28 02:58:16;;;;;;;17.90;12.63;;;15.80;99.90;;;;;;5065163;28;20291;-62
2021/06/28 03:00:47;;;;;;;14.57;11.50;;;15.80;99.90;;;;;;5067103;28;20200;-62
2021/06/28 03:03:16;;;;;;;14.87;11.30;;;15.80;99.90;;;;;;5062197;28;20192;-63
2021/06/28 03:05:45;;;;;;;17.77;13.13;;;15.80;99.90;;;;;;5062646;28;20214;-63
2021/06/28 03:08:14;;;;;;;17.07;13.40;;;15.80;99.90;;;;;;5060018;28;20451;-63
2021/06/28 03:10:43;;;;;;;19.00;13.43;;;15.80;99.90;;;;;;5066037;28;20188;-62
2021/06/28 03:16:59;;;;;;;20.43;13.17;;;15.90;99.90;;;;;;5064145;28;20205;-62
2021/06/28 03:19:29;;;;;;;18.47;13.97;;;15.90;99.90;;;;;;5061400;28;20200;-62
2021/06/28 03:21:57;;;;;;;19.70;14.63;;;15.90;99.90;;;;;;5061015;28;20809;-62
2021/06/28 03:24:26;;;;;;;23.50;15.40;;;15.90;99.90;;;;;;5067080;28;20235;-62
2021/06/28 03:26:54;;;;;;;19.50;14.60;;;15.90;99.90;;;;;;5065354;28;20682;-62
2021/06/28 03:29:23;;;;;;;20.90;13.93;;;15.90;99.90;;;;;;5064873;28;20249;-63
2021/06/28 03:31:52;;;;;;;21.50;14.67;;;15.90;99.90;;;;;;5063848;28;20188;-62
2021/06/28 03:34:21;;;;;;;18.47;13.77;;;15.90;99.90;;;;;;5069319;28;20238;-63
2021/06/28 03:36:50;;;;;;;17.63;13.13;;;15.90;99.90;;;;;;5062612;28;20216;-62
2021/06/28 03:39:18;;;;;;;17.90;13.53;;;15.90;99.90;;;;;;5068522;28;20189;-62
2021/06/28 03:41:47;;;;;;;16.60;12.70;;;15.90;99.90;;;;;;5058850;28;20248;-63
2021/06/28 03:44:15;;;;;;;20.03;12.40;;;15.90;99.90;;;;;;5061978;28;20188;-62
2021/06/28 03:46:43;;;;;;;18.33;13.07;;;15.90;99.90;;;;;;5064729;28;20214;-63
2021/06/28 03:49:12;;;;;;;19.07;13.17;;;15.90;99.90;;;;;;5058040;28;20196;-63
2021/06/28 03:51:42;;;;;;;17.27;13.43;;;16.00;99.90;;;;;;5065422;28;20528;-62
2021/06/28 03:54:10;;;;;;;15.90;12.30;;;16.00;99.90;;;;;;5066813;28;20738;-62
2021/06/28 03:56:39;;;;;;;18.07;13.13;;;16.00;99.90;;;;;;5067314;28;20274;-62
2021/06/28 03:59:07;;;;;;;21.60;14.30;;;16.00;99.90;;;;;;5057191;28;20242;-63
2021/06/28 04:01:36;;;;;;;19.50;14.70;;;16.00;99.90;;;;;;5065751;28;20288;-63
2021/06/28 04:04:05;;;;;;;27.40;17.67;;;16.00;99.90;;;;;;5063069;28;20207;-62
2021/06/28 04:06:34;;;;;;;29.83;17.37;;;16.20;99.90;;;;;;5068211;28;20200;-62
2021/06/28 04:09:05;;;;;;;22.37;16.07;;;16.20;99.90;;;;;;5067194;28;20279;-62
2021/06/28 04:11:34;;;;;;;20.63;16.13;;;16.20;99.90;;;;;;5061239;28;20222;-63
2021/06/28 04:14:05;;;;;;;22.77;16.53;;;16.20;99.90;;;;;;5067300;28;20220;-62
2021/06/28 04:16:33;;;;;;;26.07;18.20;;;16.30;99.90;;;;;;5072087;28;20227;-62
2021/06/28 04:19:02;;;;;;;24.50;17.60;;;16.30;99.90;;;;;;5064478;28;20204;-62
2021/06/28 04:21:32;;;;;;;23.87;17.30;;;16.30;99.90;;;;;;5067833;28;20193;-63
2021/06/28 04:24:05;;;;;;;24.87;15.80;;;16.30;99.90;;;;;;5059217;28;20272;-62
2021/06/28 04:26:41;;;;;;;22.67;15.33;;;16.40;99.90;;;;;;5064221;28;20278;-62
2021/06/28 04:29:11;;;;;;;25.87;16.40;;;16.40;99.90;;;;;;5064727;28;20262;-62
2021/06/28 04:31:39;;;;;;;21.90;15.77;;;16.40;99.90;;;;;;5066958;28;20765;-62
2021/06/28 04:34:08;;;;;;;21.23;16.27;;;16.40;99.90;;;;;;5052994;28;20291;-62
2021/06/28 04:36:37;;;;;;;25.30;17.57;;;16.50;99.90;;;;;;5064956;28;20777;-62
2021/06/28 04:39:09;;;;;;;26.57;17.97;;;16.50;99.90;;;;;;5067644;28;20611;-63
2021/06/28 04:41:39;;;;;;;24.27;17.00;;;16.50;99.90;;;;;;5064077;28;20554;-62
2021/06/28 04:44:08;;;;;;;24.80;16.80;;;16.60;99.90;;;;;;5060158;28;20197;-62
2021/06/28 04:46:38;;;;;;;27.03;16.70;;;16.60;99.90;;;;;;5066220;28;20218;-63
2021/06/28 04:49:06;;;;;;;24.13;16.13;;;16.60;99.90;;;;;;5058830;28;20654;-62
2021/06/28 04:51:36;;;;;;;19.97;14.00;;;16.70;99.90;;;;;;5066531;28;20630;-62
2021/06/28 04:54:05;;;;;;;21.47;14.47;;;16.70;99.90;;;;;;5064944;28;20294;-63
2021/06/28 04:56:35;;;;;;;21.07;15.57;;;16.80;99.90;;;;;;5067799;28;20186;-62
2021/06/28 04:59:03;;;;;;;21.37;15.70;;;16.80;99.90;;;;;;5063128;28;20687;-62
2021/06/28 05:01:32;;;;;;;22.00;15.77;;;16.80;99.90;;;;;;5062800;28;20671;-63
2021/06/28 05:04:00;;;;;;;20.30;15.60;;;16.80;99.90;;;;;;5062023;28;20209;-62
2021/06/28 05:06:29;;;;;;;21.50;16.57;;;16.80;99.90;;;;;;5066927;28;20237;-62
2021/06/28 05:08:58;;;;;;;21.77;16.10;;;16.80;99.90;;;;;;5059019;28;20689;-62
2021/06/28 05:11:27;;;;;;;23.63;17.20;;;16.70;99.90;;;;;;5060092;28;20739;-63
2021/06/28 05:14:03;;;;;;;20.67;15.90;;;16.70;99.90;;;;;;5063030;28;20198;-62
2021/06/28 05:16:32;;;;;;;22.10;16.30;;;16.80;99.90;;;;;;5065630;28;20196;-63
2021/06/28 05:19:01;;;;;;;18.37;14.83;;;16.80;99.90;;;;;;5069095;28;20205;-62
2021/06/28 05:21:32;;;;;;;22.17;16.60;;;16.90;99.90;;;;;;5064423;28;20190;-62
2021/06/28 05:24:01;;;;;;;20.63;16.47;;;16.90;99.90;;;;;;5068942;28;20187;-62
2021/06/28 05:26:33;;;;;;;22.77;16.67;;;16.90;99.90;;;;;;5067231;28;20198;-62
2021/06/28 05:29:03;;;;;;;20.27;15.07;;;17.00;99.90;;;;;;5065311;28;20224;-63
2021/06/28 05:31:35;;;;;;;19.57;15.00;;;17.00;99.90;;;;;;5069280;28;20290;-63
2021/06/28 05:34:03;;;;;;;17.63;14.03;;;17.10;99.90;;;;;;5062318;28;20649;-63
2021/06/28 05:36:35;;;;;;;21.03;14.67;;;17.20;99.90;;;;;;5070139;28;20279;-62
2021/06/28 05:39:05;;;;;;;18.67;14.30;;;17.20;99.90;;;;;;5067277;28;20249;-63
2021/06/28 05:41:33;;;;;;;19.53;14.37;;;17.30;99.90;;;;;;5062761;28;20643;-62
2021/06/28 05:44:04;;;;;;;21.90;14.43;;;17.40;99.90;;;;;;5070766;28;20230;-63
2021/06/28 05:46:32;;;;;;;19.80;15.97;;;17.50;99.90;;;;;;5063082;28;20291;-63
2021/06/28 05:49:01;;;;;;;20.87;14.17;;;17.60;99.90;;;;;;5069327;28;20275;-63
2021/06/28 05:51:29;;;;;;;17.87;14.67;;;17.60;99.90;;;;;;5066931;28;20230;-63
2021/06/28 05:53:58;;;;;;;20.37;14.33;;;17.70;99.90;;;;;;5065202;28;20287;-62
2021/06/28 05:56:29;;;;;;;16.43;12.97;;;17.70;99.90;;;;;;5068733;28;20253;-62
2021/06/28 05:58:57;;;;;;;15.97;12.73;;;17.80;99.90;;;;;;5055450;28;20247;-63
2021/06/28 06:01:27;;;;;;;17.93;12.77;;;17.90;99.90;;;;;;5062028;28;20192;-63
2021/06/28 06:03:58;;;;;;;17.13;13.93;;;18.00;99.90;;;;;;5063503;28;20215;-63
2021/06/28 06:06:26;;;;;;;16.57;12.97;;;18.10;99.90;;;;;;5065541;28;20235;-63
2021/06/28 06:08:54;;;;;;;16.30;13.97;;;18.10;99.90;;;;;;5059274;28;20193;-62
2021/06/28 06:11:23;;;;;;;14.17;12.23;;;18.20;99.90;;;;;;5062118;28;20613;-62
2021/06/28 06:13:51;;;;;;;17.80;14.20;;;18.30;99.90;;;;;;5062307;28;20229;-63
2021/06/28 06:16:20;;;;;;;21.07;15.30;;;18.50;99.90;;;;;;5067144;28;20275;-62
2021/06/28 06:18:50;;;;;;;20.83;14.43;;;18.50;99.90;;;;;;5070093;28;20204;-62
2021/06/28 06:21:20;;;;;;;18.20;14.57;;;18.60;99.90;;;;;;5062352;28;20200;-63
2021/06/28 06:23:49;;;;;;;21.20;14.57;;;18.80;99.90;;;;;;5066707;28;20196;-63
2021/06/28 06:26:17;;;;;;;18.00;13.00;;;18.80;99.90;;;;;;5069668;28;20196;-63
2021/06/28 06:28:47;;;;;;;13.73;12.13;;;19.00;99.90;;;;;;5065391;28;20301;-63
2021/06/28 06:31:15;;;;;;;15.43;12.43;;;19.30;99.90;;;;;;5057708;28;20223;-62
2021/06/28 06:33:44;;;;;;;13.57;11.50;;;19.80;99.90;;;;;;5061800;28;20196;-63
2021/06/28 06:36:14;;;;;;;11.43;9.47;;;20.30;99.90;;;;;;5063671;28;20280;-63
2021/06/28 06:38:43;;;;;;;10.73;9.67;;;20.80;99.90;;;;;;5066936;28;20628;-63
2021/06/28 06:41:12;;;;;;;12.30;9.87;;;21.20;99.90;;;;;;5063550;28;20282;-63
2021/06/28 06:43:40;;;;;;;9.50;8.50;;;21.20;99.90;;;;;;5067746;28;20222;-63
2021/06/28 06:46:09;;;;;;;9.43;7.43;;;21.70;99.90;;;;;;5065764;28;20207;-63
2021/06/28 06:48:38;;;;;;;9.83;8.07;;;22.20;99.90;;;;;;5069893;28;20200;-63
2021/06/28 06:51:06;;;;;;;8.77;7.93;;;22.70;99.90;;;;;;5067634;28;20188;-63
2021/06/28 06:53:36;;;;;;;9.23;7.87;;;23.30;99.90;;;;;;5068249;28;20296;-63
2021/06/28 06:56:06;;;;;;;8.90;8.10;;;23.60;99.90;;;;;;5065261;28;20210;-62
2021/06/28 06:58:35;;;;;;;7.33;6.63;;;23.70;99.90;;;;;;5063735;28;20220;-63
2021/06/28 07:01:04;;;;;;;7.50;6.80;;;23.80;99.90;;;;;;5061048;28;20189;-63
2021/06/28 07:03:32;;;;;;;9.40;8.03;;;23.80;99.90;;;;;;5055533;28;20287;-63
2021/06/28 07:06:03;;;;;;;9.10;8.23;;;23.50;99.90;;;;;;5059353;28;20271;-63
2021/06/28 07:08:33;;;;;;;8.27;7.53;;;23.10;99.90;;;;;;5051823;28;20188;-63
2021/06/28 07:11:11;;;;;;;7.90;7.13;;;22.90;99.90;;;;;;5065235;28;20204;-63
2021/06/28 07:13:40;;;;;;;8.93;8.00;;;22.90;99.90;;;;;;5066984;28;20192;-63
2021/06/28 07:16:09;;;;;;;12.73;8.57;;;23.10;99.90;;;;;;5061973;28;20199;-62
2021/06/28 07:18:37;;;;;;;9.83;8.73;;;23.20;99.90;;;;;;5063825;28;20195;-63
2021/06/28 07:21:09;;;;;;;8.73;7.93;;;23.10;99.90;;;;;;5061510;28;21671;-62
2021/06/28 07:23:38;;;;;;;11.47;9.43;;;22.80;99.90;;;;;;5060865;28;20224;-62
2021/06/28 07:26:10;;;;;;;12.40;9.63;;;22.40;99.90;;;;;;5059530;28;20674;-62
2021/06/28 07:28:39;;;;;;;9.13;8.23;;;22.10;99.90;;;;;;5058437;28;20643;-62
2021/06/28 07:31:07;;;;;;;9.40;8.50;;;21.90;99.90;;;;;;5057641;28;20274;-62
2021/06/28 07:33:40;;;;;;;12.33;10.30;;;21.80;99.90;;;;;;5058889;28;20663;-62
2021/06/28 07:36:12;;;;;;;12.53;9.40;;;21.70;99.90;;;;;;5061963;28;20620;-62
2021/06/28 07:38:41;;;;;;;11.20;10.00;;;21.60;99.90;;;;;;5064356;28;20212;-62
2021/06/28 07:41:10;;;;;;;12.93;10.30;;;21.50;99.90;;;;;;5065988;28;21608;-62
2021/06/28 07:43:42;;;;;;;10.10;9.10;;;21.30;99.90;;;;;;5061766;28;20284;-62
2021/06/28 07:46:11;;;;;;;16.63;10.80;;;21.20;99.90;;;;;;5069595;28;20223;-62
2021/06/28 07:48:41;;;;;;;12.83;10.73;;;21.10;99.90;;;;;;5066696;28;20695;-62
2021/06/28 07:51:10;;;;;;;11.73;10.47;;;21.00;99.90;;;;;;5053703;28;20742;-62
2021/06/28 07:53:42;;;;;;;12.33;9.97;;;20.90;99.90;;;;;;5053484;28;20849;-63
2021/06/28 07:56:17;;;;;;;12.47;11.27;;;20.90;99.90;;;;;;5053492;28;20227;-62
2021/06/28 07:58:47;;;;;;;11.93;10.23;;;20.90;99.90;;;;;;5054224;28;20187;-62
2021/06/28 08:01:17;;;;;;;11.83;10.53;;;20.90;99.90;;;;;;5066339;28;20206;-62
2021/06/28 08:03:47;;;;;;;12.27;11.00;;;20.90;99.90;;;;;;5069500;28;20196;-62
2021/06/28 08:06:20;;;;;;;14.20;12.03;;;20.90;99.90;;;;;;5069514;28;20193;-62
2021/06/28 08:08:51;;;;;;;18.30;12.60;;;20.80;99.90;;;;;;5068447;28;21348;-62
2021/06/28 08:11:22;;;;;;;18.30;12.43;;;20.80;99.90;;;;;;5067816;28;20197;-62
2021/06/28 08:13:52;;;;;;;14.47;12.93;;;20.90;99.90;;;;;;5067056;28;20193;-62
2021/06/28 08:16:21;;;;;;;16.07;12.10;;;20.90;99.90;;;;;;5066277;28;20188;-62
2021/06/28 08:18:53;;;;;;;15.23;12.67;;;21.00;99.90;;;;;;5068697;28;20669;-62
2021/06/28 08:21:38;;;;;;;13.63;11.90;;;21.00;99.90;;;;;;5071137;28;20215;-62
2021/06/28 08:24:10;;;;;;;13.37;11.73;;;21.00;99.90;;;;;;5067936;28;20271;-62
2021/06/28 08:26:41;;;;;;;12.03;10.63;;;21.10;99.90;;;;;;5077303;28;20201;-62
2021/06/28 08:29:10;;;;;;;13.13;11.40;;;21.10;99.90;;;;;;5067321;28;20236;-63
2021/06/28 08:31:40;;;;;;;12.40;11.20;;;21.20;99.90;;;;;;5066227;28;20189;-62
2021/06/28 08:34:13;;;;;;;15.30;11.23;;;21.30;99.90;;;;;;5064782;28;20665;-62
2021/06/28 08:36:44;;;;;;;12.30;10.93;;;21.50;99.90;;;;;;5067673;28;20699;-62
2021/06/28 08:39:14;;;;;;;13.00;11.70;;;21.70;99.90;;;;;;5066729;28;20553;-62
2021/06/28 08:41:52;;;;;;;14.23;11.63;;;21.80;99.90;;;;;;5068010;28;20228;-63
2021/06/28 08:44:21;;;;;;;12.53;11.23;;;21.80;99.90;;;;;;5060510;28;20182;-65
2021/06/28 08:46:59;;;;;;;13.47;11.17;;;21.80;99.90;;;;;;5067613;28;20212;-63
2021/06/28 08:49:30;;;;;;;13.90;11.67;;;21.80;99.90;;;;;;5066167;28;20255;-62
2021/06/28 08:51:59;;;;;;;15.63;10.83;;;21.70;99.90;;;;;;5063226;28;20258;-63
2021/06/28 08:54:29;;;;;;;14.37;11.83;;;21.60;99.90;;;;;;5065776;28;20235;-62
2021/06/28 08:57:02;;;;;;;13.63;11.43;;;21.50;99.90;;;;;;5065512;28;20201;-62
2021/06/28 08:59:31;;;;;;;13.00;11.70;;;21.50;99.90;;;;;;5062765;28;20247;-62
2021/06/28 09:01:59;;;;;;;12.63;11.37;;;21.50;99.90;;;;;;5063975;28;20189;-63
2021/06/28 09:04:28;;;;;;;11.27;9.83;;;21.50;99.90;;;;;;5070082;28;20193;-62
2021/06/28 09:07:17;;;;;;;13.80;10.90;;;21.50;99.90;;;;;;5066643;28;20222;-63
2021/06/28 09:09:48;;;;;;;11.60;10.40;;;21.50;99.90;;;;;;5061286;28;20265;-63
2021/06/28 09:12:19;;;;;;;11.40;9.93;;;21.50;99.90;;;;;;5057172;28;20315;-63
2021/06/28 09:14:53;;;;;;;8.77;7.87;;;21.50;99.90;;;;;;5063438;28;20200;-62
2021/06/28 09:17:29;;;;;;;11.53;9.10;;;21.50;99.90;;;;;;5065485;28;20678;-63
2021/06/28 09:20:12;;;;;;;10.13;8.63;;;21.50;99.90;;;;;;5063916;28;20308;-63
2021/06/28 09:22:42;;;;;;;8.73;7.93;;;21.40;99.90;;;;;;5070196;28;20192;-62
2021/06/28 09:25:30;;;;;;;8.23;7.53;;;21.40;99.90;;;;;;5068278;28;20201;-62
2021/06/28 09:28:05;;;;;;;9.07;7.60;;;21.50;99.90;;;;;;5068405;28;20289;-62
2021/06/28 09:30:39;;;;;;;8.83;8.03;;;21.60;99.90;;;;;;5065686;28;20196;-63
2021/06/28 09:33:09;;;;;;;8.00;7.40;;;21.70;99.90;;;;;;5065687;28;20642;-62
2021/06/28 09:35:41;;;;;;;8.07;7.37;;;21.80;99.90;;;;;;5057831;28;20188;-62
2021/06/28 09:38:30;;;;;;;8.13;7.40;;;21.80;99.90;;;;;;5058945;28;20209;-62
2021/06/28 09:41:19;;;;;;;7.97;7.27;;;21.80;99.90;;;;;;5061415;28;20295;-63
2021/06/28 09:43:49;;;;;;;7.80;7.10;;;21.80;99.90;;;;;;5061558;28;20292;-62
2021/06/28 09:46:20;;;;;;;7.30;6.60;;;21.70;99.90;;;;;;5058518;28;20199;-62
2021/06/28 09:48:50;;;;;;;7.50;6.67;;;21.70;99.90;;;;;;5062806;28;20257;-62
2021/06/28 09:51:26;;;;;;;7.53;6.73;;;21.60;99.90;;;;;;5060651;28;20202;-62
2021/06/28 09:53:56;;;;;;;7.43;6.60;;;21.70;99.90;;;;;;5061414;28;20252;-62
2021/06/28 09:56:35;;;;;;;7.33;6.73;;;21.70;99.90;;;;;;5058101;28;20188;-62
2021/06/28 09:59:22;;;;;;;7.63;6.87;;;21.70;99.90;;;;;;5061917;28;20192;-62
2021/06/28 10:02:09;;;;;;;9.10;7.13;;;21.60;99.90;;;;;;5060575;28;20203;-62
2021/06/28 10:04:46;;;;;;;10.17;8.80;;;21.50;99.90;;;;;;5060043;28;20204;-62
2021/06/28 10:07:23;;;;;;;9.27;8.33;;;21.50;99.90;;;;;;5058682;28;20188;-62
2021/06/28 10:10:13;;;;;;;10.33;8.67;;;21.40;99.90;;;;;;5057839;28;20200;-62
2021/06/28 10:12:45;;;;;;;9.93;8.93;;;21.30;99.90;;;;;;5061112;28;20209;-62
2021/06/28 10:15:20;;;;;;;14.57;8.50;;;21.30;99.90;;;;;;5058305;28;20200;-62
2021/06/28 10:17:50;;;;;;;10.27;9.27;;;21.40;99.90;;;;;;5060458;28;20196;-62
2021/06/28 10:20:20;;;;;;;9.27;8.23;;;21.50;99.90;;;;;;5060960;28;20208;-62
2021/06/28 10:22:53;;;;;;;8.97;8.17;;;21.50;99.90;;;;;;5065015;28;20204;-62
2021/06/28 10:25:23;;;;;;;9.63;8.57;;;21.60;99.90;;;;;;5065518;28;20203;-62
2021/06/28 10:27:54;;;;;;;11.67;7.53;;;21.60;99.90;;;;;;5043299;28;20193;-62
2021/06/28 10:30:32;;;;;;;11.93;7.50;;;21.50;99.90;;;;;;5058032;28;20196;-62
2021/06/28 10:33:07;;;;;;;9.17;7.23;;;21.50;99.90;;;;;;5059592;28;20230;-63
2021/06/28 10:35:38;;;;;;;8.47;6.90;;;21.40;99.90;;;;;;5058577;28;21639;-62
2021/06/28 10:38:09;;;;;;;8.60;7.10;;;21.30;99.90;;;;;;5059011;28;20338;-62
2021/06/28 10:40:51;;;;;;;7.73;6.93;;;21.20;99.90;;;;;;5058706;28;20220;-63
2021/06/28 10:43:28;;;;;;;10.60;7.57;;;21.10;99.90;;;;;;5059990;28;20228;-65
2021/06/28 10:45:59;;;;;;;7.37;6.63;;;21.10;99.90;;;;;;5060761;28;20191;-62
2021/06/28 10:48:29;;;;;;;9.67;7.77;;;21.00;99.90;;;;;;5060857;28;20279;-62
2021/06/28 10:51:01;;;;;;;11.87;7.87;;;21.00;99.90;;;;;;5059783;28;20655;-63
2021/06/28 10:54:14;;;;;;;15.83;8.40;;;20.90;99.90;;;;;;5063076;28;20196;-63
2021/06/28 10:56:44;;;;;;;8.20;7.50;;;20.90;99.90;;;;;;5061624;28;20262;-62
2021/06/28 10:59:41;;;;;;;9.63;8.00;;;20.90;99.90;;;;;;5056850;28;20208;-62
2021/06/28 11:02:13;;;;;;;9.43;8.30;;;21.00;99.90;;;;;;5058888;28;20259;-62
2021/06/28 11:04:52;;;;;;;8.33;7.20;;;21.00;99.90;;;;;;5057745;28;20192;-62
2021/06/28 11:07:21;;;;;;;11.27;7.17;;;21.00;99.90;;;;;;5058773;28;20808;-62
2021/06/28 11:09:52;;;;;;;8.67;7.57;;;20.90;99.90;;;;;;5059771;28;20196;-62
2021/06/28 11:12:28;;;;;;;7.97;7.00;;;20.90;99.90;;;;;;5058282;28;21061;-62
2021/06/28 11:15:27;;;;;;;11.10;7.80;;;20.90;99.90;;;;;;5058920;28;20205;-63
2021/06/28 11:17:58;;;;;;;9.00;6.87;;;20.90;99.90;;;;;;5058794;28;20212;-62
2021/06/28 11:20:29;;;;;;;8.63;7.07;;;20.90;99.90;;;;;;5058813;28;20196;-62
2021/06/28 11:23:06;;;;;;;8.10;7.30;;;20.90;99.90;;;;;;5073074;28;20658;-63
2021/06/28 11:25:39;;;;;;;11.67;7.37;;;20.90;99.90;;;;;;5057632;28;20730;-62
2021/06/28 11:28:36;;;;;;;8.73;7.87;;;20.80;99.90;;;;;;5056679;28;20273;-62
2021/06/28 11:31:28;;;;;;;9.80;7.13;;;20.70;99.90;;;;;;5057506;28;20200;-62
2021/06/28 11:34:00;;;;;;;7.53;6.87;;;20.70;99.90;;;;;;5058390;28;20196;-62
2021/06/28 11:36:40;;;;;;;9.00;7.80;;;20.70;99.90;;;;;;5066182;28;20661;-62
2021/06/28 11:39:26;;;;;;;7.90;7.10;;;20.80;99.90;;;;;;5059059;28;20187;-63
2021/06/28 11:42:17;;;;;;;8.80;7.50;;;20.80;99.90;;;;;;5066395;28;20220;-62
2021/06/28 11:45:07;;;;;;;7.50;6.80;;;20.70;99.90;;;;;;5062649;28;20554;-62
2021/06/28 11:48:15;;;;;;;7.93;7.03;;;20.70;99.90;;;;;;5046735;28;20196;-62
2021/06/28 11:50:45;;;;;;;7.80;7.10;;;20.70;99.90;;;;;;5079109;28;20220;-62
2021/06/28 11:53:16;;;;;;;7.67;6.93;;;20.60;99.90;;;;;;5066851;28;20249;-62
2021/06/28 11:55:48;;;;;;;9.70;7.23;;;20.70;99.90;;;;;;5062235;28;20559;-62
2021/06/28 11:58:21;;;;;;;8.10;7.30;;;20.70;99.90;;;;;;5065951;28;20633;-62
2021/06/28 12:01:09;;;;;;;6.50;6.00;;;20.70;99.90;;;;;;5061718;28;20200;-63
2021/06/28 12:03:39;;;;;;;5.20;4.90;;;20.70;99.90;;;;;;5062917;28;20585;-63
2021/06/28 12:06:11;;;;;;;6.07;5.47;;;20.70;99.90;;;;;;5056148;28;20236;-62
2021/06/28 12:08:40;;;;;;;5.40;5.07;;;20.70;99.90;;;;;;5062922;28;20234;-62
2021/06/28 12:11:10;;;;;;;5.80;5.20;;;20.60;99.90;;;;;;5067558;28;20200;-62
2021/06/28 12:13:45;;;;;;;6.27;5.53;;;20.60;99.90;;;;;;5061593;28;20295;-62
2021/06/28 12:16:18;;;;;;;5.43;5.10;;;20.60;99.90;;;;;;5065380;28;20184;-62
2021/06/28 12:18:46;;;;;;;5.67;5.20;;;20.60;99.90;;;;;;5065496;28;20204;-62
2021/06/28 12:21:28;;;;;;;5.77;5.33;;;20.60;99.90;;;;;;5058339;28;20189;-62
2021/06/28 12:24:03;;;;;;;5.80;5.40;;;20.60;99.90;;;;;;5061499;28;21697;-62
2021/06/28 12:26:32;;;;;;;5.70;5.30;;;20.60;99.90;;;;;;5067544;28;20283;-62
2021/06/28 12:29:33;;;;;;;6.13;5.57;;;20.50;99.90;;;;;;5066367;28;20319;-62
2021/06/28 12:32:11;;;;;;;5.40;5.10;;;20.60;99.90;;;;;;5046671;28;20782;-62
2021/06/28 12:34:40;;;;;;;5.83;5.27;;;20.60;99.90;;;;;;5067737;28;20211;-63
2021/06/28 12:37:13;;;;;;;4.93;4.53;;;20.60;99.90;;;;;;5062565;28;20612;-62
2021/06/28 12:39:41;;;;;;;3.93;3.73;;;20.60;99.90;;;;;;5070454;28;20654;-62
2021/06/28 12:42:12;;;;;;;3.10;3.00;;;20.50;99.90;;;;;;5068145;28;20304;-62
2021/06/28 12:44:42;;;;;;;3.17;2.97;;;20.60;99.90;;;;;;5069638;28;20192;-63
2021/06/28 12:47:12;;;;;;;5.43;2.63;;;20.50;99.90;;;;;;5068326;28;20286;-62
2021/06/28 12:49:42;;;;;;;2.60;2.50;;;20.50;99.90;;;;;;5064856;28;20203;-62
2021/06/28 12:52:42;;;;;;;3.03;2.80;;;20.60;99.90;;;;;;5065856;28;20184;-62
2021/06/28 12:55:13;;;;;;;2.30;2.30;;;20.70;99.90;;;;;;5000019;28;20206;-62
2021/06/28 12:57:43;;;;;;;2.00;2.00;;;20.90;99.90;;;;;;5053361;28;20208;-62
2021/06/28 13:00:23;;;;;;;3.23;2.30;;;21.10;99.90;;;;;;5069092;28;20546;-62